Flight Track Log - Related Links

Times and Time Zones

All times are in EST time to prevent confusion due to time zone crossing. See the EJA829P flight status page for this flight to view local times or setup timezone preferences in your user account.

Time Position Orientation Groundspeed Altitude Reporting Facility
EST Latitude Longitude Course Direction KTS MPH feet Rate Location/Type
Tue 10:31:56 AM 45.0167 -79.2000 137° Southeast 230 265 5,000  Level Toronto Center
Tue 10:32:56 AM 44.9667 -79.1333 137° Southeast 270 311 6,700 3,100 Climbing Toronto Center
Tue 10:33:56 AM 44.9333 -79.0167 112° Southeast 300 345 11,200 4,550 Climbing Toronto Center
Tue 10:34:56 AM 44.8833 -78.9333 130° Southeast 320 368 15,800 4,700 Climbing Toronto Center
Tue 10:35:56 AM 44.8500 -78.7833 107° East 320 368 20,600 3,650 Climbing Toronto Center
Tue 10:36:56 AM 44.8167 -78.6667 112° Southeast 350 403 23,100 2,450 Climbing Toronto Center
Tue 10:37:56 AM 44.7667 -78.5333 118° Southeast 400 460 25,500 1,950 Climbing Toronto Center
Tue 10:38:56 AM 44.6833 -78.3833 128° Southeast 430 495 27,000 750 Climbing Toronto Center
Tue 10:39:56 AM 44.6000 -78.2500 131° Southeast 460 529 27,000  Level Toronto Center
Tue 10:40:56 AM 44.5167 -78.1167 131° Southeast 450 518 27,000  Level Toronto Center
Tue 10:41:56 AM 44.4500 -77.9667 122° Southeast 460 529 27,000  Level Toronto Center
Tue 10:42:56 AM 44.3667 -77.8333 131° Southeast 450 518 27,000  Level Toronto Center
Tue 10:43:56 AM 44.3000 -77.7000 125° Southeast 460 529 27,000  Level Toronto Center
Tue 10:44:56 AM 44.2167 -77.5667 131° Southeast 460 529 27,000  Level Toronto Center
Tue 10:46:36 AM 44.0969 -77.3553 128° Southeast 456 525 27,000  Level Boston Center
Tue 10:47:36 AM 44.0186 -77.2186 129° Southeast 452 520 27,000  Level Boston Center
Tue 10:48:37 AM 43.9400 -77.0828 129° Southeast 452 520 27,000  Level Boston Center
Tue 10:49:37 AM 43.8722 -76.9644 128° Southeast 452 520 27,000  Level Boston Center
Tue 10:50:40 AM 43.7825 -76.8108 129° Southeast 452 520 27,000  Level Boston Center
Tue 10:51:41 AM 43.7042 -76.6614 126° Southeast 455 524 27,000  Level Boston Center
Tue 10:52:42 AM 43.5981 -76.5939 155° Southeast 417 480 27,000  Level Boston Center
Tue 10:53:43 AM 43.4961 -76.5153 151° Southeast 420 483 27,000  Level Boston Center
Tue 10:54:43 AM 43.3964 -76.4306 148° Southeast 424 488 27,000  Level Boston Center
Tue 10:55:44 AM 43.2947 -76.3453 149° Southeast 429 494 27,000  Level Boston Center
Tue 10:56:44 AM 43.1919 -76.2581 148° Southeast 436 502 27,000  Level Boston Center
Tue 10:57:47 AM 43.0908 -76.1722 148° Southeast 433 498 27,000  Level Boston Center
Tue 10:58:48 AM 42.9975 -76.0678 141° Southeast 449 517 27,000 -545 Level Boston Center
Tue 10:59:48 AM 42.8925 -75.9289 136° Southeast 444 511 25,900 -1,377 Descending Boston Center
Tue 11:00:50 AM 42.8086 -75.8228 137° Southeast 427 491 24,200 -1,672 Descending Boston Center
Tue 11:01:50 AM 42.7275 -75.7219 138° Southeast 406 467 22,500 -1,659 Descending Boston Center
Tue 11:02:53 AM 42.6464 -75.6192 137° Southeast 403 464 20,800 -1,645 Descending Boston Center
Tue 11:03:54 AM 42.5656 -75.5175 137° Southeast 401 461 19,100 -1,488 Descending Boston Center
Tue 11:04:54 AM 42.4878 -75.4206 137° Southeast 387 445 17,800 -1,537 Descending Boston Center
Tue 11:05:55 AM 42.4108 -75.3233 137° Southeast 381 438 16,000 -1,339 Descending Boston Center
Tue 11:06:55 AM 42.3336 -75.2306 138° Southeast 376 433 15,100 -435 Descending Boston Center
Tue 11:07:59 AM 42.2603 -75.1361 136° Southeast 367 422 15,100  Level Boston Center
Tue 11:09:00 AM 42.1728 -75.0253 137° Southeast 361 415 15,100  Level Boston Center
Tue 11:10:00 AM 42.0969 -74.9347 138° Southeast 365 420 15,100 -50 Level Boston Center
Tue 11:11:01 AM 42.0197 -74.8372 137° Southeast 372 428 15,000 -694 Descending Boston Center
Tue 11:12:01 AM 41.9347 -74.7731 151° Southeast 350 403 13,700 -1,512 Descending Boston Center
Tue 11:13:04 AM 41.8514 -74.7133 152° Southeast 341 392 11,900 -1,659 Descending Boston Center
Tue 11:14:04 AM 41.7769 -74.6600 152° Southeast 305 351 10,300 -1,587 Descending Boston Center
Tue 11:15:05 AM 41.7039 -74.6075 152° Southeast 282 325 8,700 -1,610 Descending Boston Center
Tue 11:16:07 AM 41.6269 -74.5661 158° South 302 348 7,000 -1,317 Descending Boston Center
Tue 11:17:08 AM 41.5453 -74.5750 185° South 295 339 6,000 -500 Descending Boston Center
Tue 11:18:07 AM 41.4683 -74.5853 186° South 282 325 6,000  Level Boston Center
Tue 11:19:10 AM 41.3828 -74.6008 188° South 289 333 6,000  Level Boston Center
Tue 11:19:54 AM 41.3333 -74.6167 194° South 270 311 6,000 -750 Level New York TRACON
Tue 11:20:54 AM 41.2500 -74.6000 171° South 274 315 4,700 -1,000 Descending New York TRACON
Tue 11:21:54 AM 41.1833 -74.5833 169° South 272 313 4,000 -400 Descending New York TRACON
Tue 11:22:54 AM 41.1000 -74.5500 163° South 278 320 3,900 -500 Descending New York TRACON
Tue 11:23:54 AM 41.0333 -74.5167 159° South 272 313 3,000 -429 Descending New York TRACON
Tue 11:25:00 AM 40.9500 -74.4833 163° South 271 312 3,000 -50 Level New York TRACON
Tue 11:25:54 AM 40.9000 -74.4667 166° South 240 276 2,900 -421 Descending New York TRACON
Tue 11:26:54 AM 40.8333 -74.4500 169° South 193 222 2,200 -650 Descending New York TRACON
Tue 11:27:54 AM 40.8000 -74.4667 201° Southwest 157 181 1,600 -476 Descending New York TRACON
Tue 11:29:00 AM 40.7667 -74.4500 159° South 145 167 1,200 -500 Descending New York TRACON
Tue 11:29:54 AM 40.7833 -74.4167 57° Northeast 116 133 600 -667 Descending New York TRACON
Tue 11:31:00 AM 40.7833 -74.4000 150° Southeast  Level FlightAware Approximate
Tue 11:38:00 AM 40.7993 -74.4149 150° Southeast  Level Estimated

Login

Don't have an account? Register now (free) for customized features, flight alerts, and more!